Flight Briefing for CPX117

Departure Arrival
Daniel K Inouye International Airport (PHNL)
Click to view FAA NOTAMS
Los Angeles International Airport (KLAX)
Click to view FAA NOTAMS
Departure Time Arrival Time
N/A N/A
Aircraft Distance
B747-400BCF 2267nm
Departure METAR Arrival METAR
PHNL 181453Z 33005KT 10SM CLR 18/13 A3002 RMK AO2 SLP165 T01830128 56008 KLAX 181453Z 08003KT 10SM FEW011 15/09 A2998 RMK AO2 SLP151 T01500094 53008
Suggested Route
MKK4 CLUTS R465 CIVIT R585 AUDIA SNAXX RYDRR2


View recent IFR Routes data
Notes



Charts and Procedures

Charts for PHNL
No chart available
Charts for KLAX
No chart available

Windy.com Weather Map